sensor_id;sensor_type;location;lat;lon;timestamp;temperature;humidity
46552;DHT22;32278;51.810;4.712;2022-08-07T00:01:37;16.30;99.90
46552;DHT22;32278;51.810;4.712;2022-08-07T00:04:04;16.20;99.90
46552;DHT22;32278;51.810;4.712;2022-08-07T00:06:30;16.20;99.90
46552;DHT22;32278;51.810;4.712;2022-08-07T00:08:57;16.20;99.90
46552;DHT22;32278;51.810;4.712;2022-08-07T00:11:23;16.20;99.90
46552;DHT22;32278;51.810;4.712;2022-08-07T00:13:48;16.20;99.90
46552;DHT22;32278;51.810;4.712;2022-08-07T00:16:14;16.10;99.90
46552;DHT22;32278;51.810;4.712;2022-08-07T00:18:39;16.10;99.90
46552;DHT22;32278;51.810;4.712;2022-08-07T00:21:07;16.10;99.90
46552;DHT22;32278;51.810;4.712;2022-08-07T00:23:34;16.00;99.90
46552;DHT22;32278;51.810;4.712;2022-08-07T00:26:02;16.00;99.90
46552;DHT22;32278;51.810;4.712;2022-08-07T00:28:29;15.90;99.90
46552;DHT22;32278;51.810;4.712;2022-08-07T00:30:55;15.90;99.90
46552;DHT22;32278;51.810;4.712;2022-08-07T00:33:21;15.90;99.90
46552;DHT22;32278;51.810;4.712;2022-08-07T00:35:51;16.00;99.90
46552;DHT22;32278;51.810;4.712;2022-08-07T00:38:17;16.00;99.90
46552;DHT22;32278;51.810;4.712;2022-08-07T00:40:43;16.00;99.90
46552;DHT22;32278;51.810;4.712;2022-08-07T00:43:09;15.90;99.90
46552;DHT22;32278;51.810;4.712;2022-08-07T00:45:34;15.90;99.90
46552;DHT22;32278;51.810;4.712;2022-08-07T00:48:00;15.90;99.90
46552;DHT22;32278;51.810;4.712;2022-08-07T00:50:26;15.80;99.90
46552;DHT22;32278;51.810;4.712;2022-08-07T00:52:52;15.90;99.90
46552;DHT22;32278;51.810;4.712;2022-08-07T00:55:17;15.80;99.90
46552;DHT22;32278;51.810;4.712;2022-08-07T00:57:43;15.70;99.90
46552;DHT22;32278;51.810;4.712;2022-08-07T01:00:09;15.60;99.90
46552;DHT22;32278;51.810;4.712;2022-08-07T01:02:34;15.60;99.90
46552;DHT22;32278;51.810;4.712;2022-08-07T01:05:03;15.60;99.90
46552;DHT22;32278;51.810;4.712;2022-08-07T01:07:31;15.50;99.90
46552;DHT22;32278;51.810;4.712;2022-08-07T01:09:57;15.50;99.90
46552;DHT22;32278;51.810;4.712;2022-08-07T01:12:22;15.40;99.90
46552;DHT22;32278;51.810;4.712;2022-08-07T01:14:48;15.40;99.90
46552;DHT22;32278;51.810;4.712;2022-08-07T01:17:14;15.40;99.90
46552;DHT22;32278;51.810;4.712;2022-08-07T01:19:40;15.40;99.90
46552;DHT22;32278;51.810;4.712;2022-08-07T01:22:06;15.40;99.90
46552;DHT22;32278;51.810;4.712;2022-08-07T01:24:32;15.40;99.90
46552;DHT22;32278;51.810;4.712;2022-08-07T01:26:59;15.40;99.90
46552;DHT22;32278;51.810;4.712;2022-08-07T01:29:28;15.40;99.90
46552;DHT22;32278;51.810;4.712;2022-08-07T01:31:54;15.40;99.90
46552;DHT22;32278;51.810;4.712;2022-08-07T01:34:20;15.40;99.90
46552;DHT22;32278;51.810;4.712;2022-08-07T01:36:47;15.50;99.90
46552;DHT22;32278;51.810;4.712;2022-08-07T01:39:14;15.50;99.90
46552;DHT22;32278;51.810;4.712;2022-08-07T01:41:40;15.50;99.90
46552;DHT22;32278;51.810;4.712;2022-08-07T01:44:08;15.50;99.90
46552;DHT22;32278;51.810;4.712;2022-08-07T01:46:34;15.60;99.90
46552;DHT22;32278;51.810;4.712;2022-08-07T01:49:00;15.60;99.90
46552;DHT22;32278;51.810;4.712;2022-08-07T01:51:26;15.60;99.90
46552;DHT22;32278;51.810;4.712;2022-08-07T01:53:56;15.60;99.90
46552;DHT22;32278;51.810;4.712;2022-08-07T01:56:40;15.50;99.90
46552;DHT22;32278;51.810;4.712;2022-08-07T01:59:12;15.50;99.90
46552;DHT22;32278;51.810;4.712;2022-08-07T02:01:44;15.50;99.90
46552;DHT22;32278;51.810;4.712;2022-08-07T02:04:26;15.50;99.90
46552;DHT22;32278;51.810;4.712;2022-08-07T02:06:54;15.40;99.90
46552;DHT22;32278;51.810;4.712;2022-08-07T02:09:23;15.50;99.90
46552;DHT22;32278;51.810;4.712;2022-08-07T02:11:49;15.50;99.90
46552;DHT22;32278;51.810;4.712;2022-08-07T02:14:16;15.50;99.90
46552;DHT22;32278;51.810;4.712;2022-08-07T02:16:44;15.50;99.90
46552;DHT22;32278;51.810;4.712;2022-08-07T02:19:12;15.50;99.90
46552;DHT22;32278;51.810;4.712;2022-08-07T02:21:40;15.50;99.90
46552;DHT22;32278;51.810;4.712;2022-08-07T02:24:06;15.50;99.90
46552;DHT22;32278;51.810;4.712;2022-08-07T02:26:34;15.50;99.90
46552;DHT22;32278;51.810;4.712;2022-08-07T02:29:02;15.50;99.90
46552;DHT22;32278;51.810;4.712;2022-08-07T02:31:30;15.50;99.90
46552;DHT22;32278;51.810;4.712;2022-08-07T02:33:56;15.50;99.90
46552;DHT22;32278;51.810;4.712;2022-08-07T02:36:25;15.60;99.90
46552;DHT22;32278;51.810;4.712;2022-08-07T02:38:51;15.70;99.90
46552;DHT22;32278;51.810;4.712;2022-08-07T02:41:17;15.60;99.90
46552;DHT22;32278;51.810;4.712;2022-08-07T02:43:43;15.60;99.90
46552;DHT22;32278;51.810;4.712;2022-08-07T02:46:10;15.60;99.90
46552;DHT22;32278;51.810;4.712;2022-08-07T02:48:37;15.50;99.90
46552;DHT22;32278;51.810;4.712;2022-08-07T02:51:07;15.50;99.90
46552;DHT22;32278;51.810;4.712;2022-08-07T02:53:35;15.50;99.90
46552;DHT22;32278;51.810;4.712;2022-08-07T02:56:03;15.50;99.90
46552;DHT22;32278;51.810;4.712;2022-08-07T02:58:30;15.50;99.90
46552;DHT22;32278;51.810;4.712;2022-08-07T03:00:57;15.50;99.90
46552;DHT22;32278;51.810;4.712;2022-08-07T03:03:25;15.50;99.90
46552;DHT22;32278;51.810;4.712;2022-08-07T03:05:53;15.50;99.90
46552;DHT22;32278;51.810;4.712;2022-08-07T03:08:19;15.50;99.90
46552;DHT22;32278;51.810;4.712;2022-08-07T03:10:45;15.40;99.90
46552;DHT22;32278;51.810;4.712;2022-08-07T03:13:13;15.40;99.90
46552;DHT22;32278;51.810;4.712;2022-08-07T03:15:39;15.40;99.90
46552;DHT22;32278;51.810;4.712;2022-08-07T03:18:05;15.40;99.90
46552;DHT22;32278;51.810;4.712;2022-08-07T03:20:31;15.40;99.90
46552;DHT22;32278;51.810;4.712;2022-08-07T03:22:57;15.40;99.90
46552;DHT22;32278;51.810;4.712;2022-08-07T03:25:24;15.40;99.90
46552;DHT22;32278;51.810;4.712;2022-08-07T03:27:51;15.30;99.90
46552;DHT22;32278;51.810;4.712;2022-08-07T03:30:21;15.40;99.90
46552;DHT22;32278;51.810;4.712;2022-08-07T03:32:48;15.50;99.90
46552;DHT22;32278;51.810;4.712;2022-08-07T03:35:21;15.60;99.90
46552;DHT22;32278;51.810;4.712;2022-08-07T03:37:51;15.60;99.90
46552;DHT22;32278;51.810;4.712;2022-08-07T03:40:18;15.40;99.90
46552;DHT22;32278;51.810;4.712;2022-08-07T03:42:47;15.40;99.90
46552;DHT22;32278;51.810;4.712;2022-08-07T03:45:14;15.30;99.90
46552;DHT22;32278;51.810;4.712;2022-08-07T03:47:40;15.30;99.90
46552;DHT22;32278;51.810;4.712;2022-08-07T03:50:06;15.40;99.90
46552;DHT22;32278;51.810;4.712;2022-08-07T03:52:32;15.30;99.90
46552;DHT22;32278;51.810;4.712;2022-08-07T03:54:59;15.20;99.90
46552;DHT22;32278;51.810;4.712;2022-08-07T03:57:25;15.30;99.90
46552;DHT22;32278;51.810;4.712;2022-08-07T03:59:53;15.20;99.90
46552;DHT22;32278;51.810;4.712;2022-08-07T04:02:19;15.20;99.90
46552;DHT22;32278;51.810;4.712;2022-08-07T04:04:44;15.30;99.90
46552;DHT22;32278;51.810;4.712;2022-08-07T04:07:10;15.30;99.90
46552;DHT22;32278;51.810;4.712;2022-08-07T04:09:36;15.30;99.90
46552;DHT22;32278;51.810;4.712;2022-08-07T04:12:03;15.30;99.90
46552;DHT22;32278;51.810;4.712;2022-08-07T04:14:30;15.30;99.90
46552;DHT22;32278;51.810;4.712;2022-08-07T04:16:56;15.30;99.90
46552;DHT22;32278;51.810;4.712;2022-08-07T04:19:22;15.40;99.90
46552;DHT22;32278;51.810;4.712;2022-08-07T04:21:49;15.40;99.90
46552;DHT22;32278;51.810;4.712;2022-08-07T04:24:15;15.30;99.90
46552;DHT22;32278;51.810;4.712;2022-08-07T04:26:41;15.30;99.90
46552;DHT22;32278;51.810;4.712;2022-08-07T04:29:07;15.30;99.90
46552;DHT22;32278;51.810;4.712;2022-08-07T04:31:39;15.30;99.90
46552;DHT22;32278;51.810;4.712;2022-08-07T04:34:06;15.40;99.90
46552;DHT22;32278;51.810;4.712;2022-08-07T04:36:32;15.40;99.90
46552;DHT22;32278;51.810;4.712;2022-08-07T04:38:59;15.30;99.90
46552;DHT22;32278;51.810;4.712;2022-08-07T04:41:25;15.30;99.90
46552;DHT22;32278;51.810;4.712;2022-08-07T04:43:50;15.40;99.90
46552;DHT22;32278;51.810;4.712;2022-08-07T04:46:37;15.50;99.90
46552;DHT22;32278;51.810;4.712;2022-08-07T04:49:22;15.60;99.90
46552;DHT22;32278;51.810;4.712;2022-08-07T04:55:00;15.40;99.90
46552;DHT22;32278;51.810;4.712;2022-08-07T05:00:24;15.50;99.90
46552;DHT22;32278;51.810;4.712;2022-08-07T05:03:01;15.50;99.90
46552;DHT22;32278;51.810;4.712;2022-08-07T05:05:45;15.50;99.90
46552;DHT22;32278;51.810;4.712;2022-08-07T05:08:25;15.50;99.90
46552;DHT22;32278;51.810;4.712;2022-08-07T05:11:11;15.40;99.90
46552;DHT22;32278;51.810;4.712;2022-08-07T05:13:44;15.40;99.90
46552;DHT22;32278;51.810;4.712;2022-08-07T05:16:13;15.50;99.90
46552;DHT22;32278;51.810;4.712;2022-08-07T05:18:46;15.60;99.90
46552;DHT22;32278;51.810;4.712;2022-08-07T05:21:13;15.60;99.90
46552;DHT22;32278;51.810;4.712;2022-08-07T05:23:52;15.70;99.90
46552;DHT22;32278;51.810;4.712;2022-08-07T05:26:21;15.60;99.90
46552;DHT22;32278;51.810;4.712;2022-08-07T05:28:50;15.70;99.90
46552;DHT22;32278;51.810;4.712;2022-08-07T05:31:19;15.70;99.90
46552;DHT22;32278;51.810;4.712;2022-08-07T05:33:48;15.80;99.90
46552;DHT22;32278;51.810;4.712;2022-08-07T05:36:16;15.80;99.90
46552;DHT22;32278;51.810;4.712;2022-08-07T05:38:43;15.80;99.90
46552;DHT22;32278;51.810;4.712;2022-08-07T05:41:10;15.90;99.90
46552;DHT22;32278;51.810;4.712;2022-08-07T05:43:37;16.10;99.90
46552;DHT22;32278;51.810;4.712;2022-08-07T05:46:03;16.00;99.90
46552;DHT22;32278;51.810;4.712;2022-08-07T05:48:29;15.90;99.90
46552;DHT22;32278;51.810;4.712;2022-08-07T05:50:57;16.00;99.90
46552;DHT22;32278;51.810;4.712;2022-08-07T05:53:23;16.00;99.90
46552;DHT22;32278;51.810;4.712;2022-08-07T05:55:50;16.10;99.90
46552;DHT22;32278;51.810;4.712;2022-08-07T05:58:17;16.10;99.90
46552;DHT22;32278;51.810;4.712;2022-08-07T06:00:45;16.20;99.90
46552;DHT22;32278;51.810;4.712;2022-08-07T06:03:11;16.30;99.90
46552;DHT22;32278;51.810;4.712;2022-08-07T06:05:38;16.50;99.90
46552;DHT22;32278;51.810;4.712;2022-08-07T06:08:05;16.60;99.90
46552;DHT22;32278;51.810;4.712;2022-08-07T06:10:30;16.50;99.90
46552;DHT22;32278;51.810;4.712;2022-08-07T06:12:56;16.60;99.90
46552;DHT22;32278;51.810;4.712;2022-08-07T06:15:25;16.70;99.90
46552;DHT22;32278;51.810;4.712;2022-08-07T06:17:52;16.70;99.90
46552;DHT22;32278;51.810;4.712;2022-08-07T06:20:17;16.70;99.90
46552;DHT22;32278;51.810;4.712;2022-08-07T06:22:43;16.90;99.90
46552;DHT22;32278;51.810;4.712;2022-08-07T06:25:11;17.10;99.90
46552;DHT22;32278;51.810;4.712;2022-08-07T06:27:37;17.40;99.90
46552;DHT22;32278;51.810;4.712;2022-08-07T06:30:03;17.50;99.90
46552;DHT22;32278;51.810;4.712;2022-08-07T06:32:29;17.40;99.90
46552;DHT22;32278;51.810;4.712;2022-08-07T06:34:55;17.60;99.90
46552;DHT22;32278;51.810;4.712;2022-08-07T06:37:21;18.00;99.90
46552;DHT22;32278;51.810;4.712;2022-08-07T06:39:46;18.30;99.90
46552;DHT22;32278;51.810;4.712;2022-08-07T06:42:18;18.20;99.90
46552;DHT22;32278;51.810;4.712;2022-08-07T06:44:46;17.80;99.90
46552;DHT22;32278;51.810;4.712;2022-08-07T06:47:13;17.70;99.90
46552;DHT22;32278;51.810;4.712;2022-08-07T06:49:40;17.60;99.90
46552;DHT22;32278;51.810;4.712;2022-08-07T06:52:07;17.70;99.90
46552;DHT22;32278;51.810;4.712;2022-08-07T06:54:35;17.70;99.90
46552;DHT22;32278;51.810;4.712;2022-08-07T06:57:01;17.90;99.90
46552;DHT22;32278;51.810;4.712;2022-08-07T06:59:34;17.90;99.90
46552;DHT22;32278;51.810;4.712;2022-08-07T07:02:01;17.90;99.90
46552;DHT22;32278;51.810;4.712;2022-08-07T07:04:27;18.10;99.90
46552;DHT22;32278;51.810;4.712;2022-08-07T07:06:55;18.40;99.90
46552;DHT22;32278;51.810;4.712;2022-08-07T07:12:18;18.60;99.90
46552;DHT22;32278;51.810;4.712;2022-08-07T07:17:56;18.20;99.90
46552;DHT22;32278;51.810;4.712;2022-08-07T07:20:32;18.10;99.90
46552;DHT22;32278;51.810;4.712;2022-08-07T07:22:59;18.50;99.90
46552;DHT22;32278;51.810;4.712;2022-08-07T07:25:26;18.90;99.90
46552;DHT22;32278;51.810;4.712;2022-08-07T07:27:56;18.80;99.90
46552;DHT22;32278;51.810;4.712;2022-08-07T07:30:27;19.00;99.90
46552;DHT22;32278;51.810;4.712;2022-08-07T07:32:54;19.10;99.90
46552;DHT22;32278;51.810;4.712;2022-08-07T07:35:23;19.10;99.90
46552;DHT22;32278;51.810;4.712;2022-08-07T07:37:49;18.80;99.90
46552;DHT22;32278;51.810;4.712;2022-08-07T07:40:18;18.70;99.90
46552;DHT22;32278;51.810;4.712;2022-08-07T07:42:46;19.20;99.90
46552;DHT22;32278;51.810;4.712;2022-08-07T07:45:13;18.90;99.90
46552;DHT22;32278;51.810;4.712;2022-08-07T07:47:41;18.80;99.90
46552;DHT22;32278;51.810;4.712;2022-08-07T07:50:10;19.10;99.90
46552;DHT22;32278;51.810;4.712;2022-08-07T07:52:37;19.00;99.90
46552;DHT22;32278;51.810;4.712;2022-08-07T07:55:05;19.50;99.90
46552;DHT22;32278;51.810;4.712;2022-08-07T07:57:32;20.10;99.90
46552;DHT22;32278;51.810;4.712;2022-08-07T07:59:59;20.20;99.90
46552;DHT22;32278;51.810;4.712;2022-08-07T08:02:26;20.30;99.90
46552;DHT22;32278;51.810;4.712;2022-08-07T08:04:53;19.60;99.90
46552;DHT22;32278;51.810;4.712;2022-08-07T08:07:20;20.00;99.90
46552;DHT22;32278;51.810;4.712;2022-08-07T08:09:47;20.00;99.90
46552;DHT22;32278;51.810;4.712;2022-08-07T08:12:15;20.20;99.90
46552;DHT22;32278;51.810;4.712;2022-08-07T08:14:41;20.80;99.90
46552;DHT22;32278;51.810;4.712;2022-08-07T08:17:09;20.60;99.90
46552;DHT22;32278;51.810;4.712;2022-08-07T08:19:35;20.80;99.90
46552;DHT22;32278;51.810;4.712;2022-08-07T08:22:04;20.90;99.90
46552;DHT22;32278;51.810;4.712;2022-08-07T08:24:51;21.10;99.90
46552;DHT22;32278;51.810;4.712;2022-08-07T08:27:37;21.30;99.90
46552;DHT22;32278;51.810;4.712;2022-08-07T08:30:06;21.20;99.90
46552;DHT22;32278;51.810;4.712;2022-08-07T08:32:36;21.40;99.90
46552;DHT22;32278;51.810;4.712;2022-08-07T08:35:03;21.90;99.90
46552;DHT22;32278;51.810;4.712;2022-08-07T08:37:33;21.20;99.90
46552;DHT22;32278;51.810;4.712;2022-08-07T08:40:00;21.10;99.90
46552;DHT22;32278;51.810;4.712;2022-08-07T08:42:36;21.20;99.90
46552;DHT22;32278;51.810;4.712;2022-08-07T08:45:31;21.20;99.90
46552;DHT22;32278;51.810;4.712;2022-08-07T08:51:01;20.60;99.90
46552;DHT22;32278;51.810;4.712;2022-08-07T08:53:55;20.20;99.90
46552;DHT22;32278;51.810;4.712;2022-08-07T08:56:28;20.50;99.90
46552;DHT22;32278;51.810;4.712;2022-08-07T08:58:56;20.50;99.90
46552;DHT22;32278;51.810;4.712;2022-08-07T09:04:28;21.50;99.90
46552;DHT22;32278;51.810;4.712;2022-08-07T09:10:22;22.40;99.90
46552;DHT22;32278;51.810;4.712;2022-08-07T09:13:08;22.70;99.90
46552;DHT22;32278;51.810;4.712;2022-08-07T09:27:22;21.80;99.90
46552;DHT22;32278;51.810;4.712;2022-08-07T09:32:42;22.30;95.70
46552;DHT22;32278;51.810;4.712;2022-08-07T09:40:36;22.30;94.70
46552;DHT22;32278;51.810;4.712;2022-08-07T09:43:35;22.30;94.70
46552;DHT22;32278;51.810;4.712;2022-08-07T09:52:07;22.80;93.90
46552;DHT22;32278;51.810;4.712;2022-08-07T09:55:03;23.30;90.40
46552;DHT22;32278;51.810;4.712;2022-08-07T10:06:12;22.20;91.80
46552;DHT22;32278;51.810;4.712;2022-08-07T10:20:26;22.60;90.80
46552;DHT22;32278;51.810;4.712;2022-08-07T10:23:27;22.30;91.50
46552;DHT22;32278;51.810;4.712;2022-08-07T10:31:52;22.30;39.90
46552;DHT22;32278;51.810;4.712;2022-08-07T10:34:56;22.10;54.80
46552;DHT22;32278;51.810;4.712;2022-08-07T10:37:37;22.70;60.80
46552;DHT22;32278;51.810;4.712;2022-08-07T10:40:27;22.90;33.70
46552;DHT22;32278;51.810;4.712;2022-08-07T10:43:28;23.40;17.30
46552;DHT22;32278;51.810;4.712;2022-08-07T10:45:58;23.20;1.00
46552;DHT22;32278;51.810;4.712;2022-08-07T10:51:27;23.60;1.00
46552;DHT22;32278;51.810;4.712;2022-08-07T10:54:13;24.20;1.00
46552;DHT22;32278;51.810;4.712;2022-08-07T10:57:06;24.40;1.00
46552;DHT22;32278;51.810;4.712;2022-08-07T11:10:42;23.80;1.00
46552;DHT22;32278;51.810;4.712;2022-08-07T11:15:47;23.60;1.00
46552;DHT22;32278;51.810;4.712;2022-08-07T11:18:29;23.50;1.00
46552;DHT22;32278;51.810;4.712;2022-08-07T11:21:18;24.10;1.00
46552;DHT22;32278;51.810;4.712;2022-08-07T11:24:07;24.40;1.00
46552;DHT22;32278;51.810;4.712;2022-08-07T11:29:30;24.20;1.00
46552;DHT22;32278;51.810;4.712;2022-08-07T11:32:04;24.00;1.00
46552;DHT22;32278;51.810;4.712;2022-08-07T11:34:47;24.70;2.40
46552;DHT22;32278;51.810;4.712;2022-08-07T11:40:13;24.10;8.70
46552;DHT22;32278;51.810;4.712;2022-08-07T11:43:11;24.70;1.00
46552;DHT22;32278;51.810;4.712;2022-08-07T11:54:17;24.50;1.00
46552;DHT22;32278;51.810;4.712;2022-08-07T11:59:29;24.40;1.00
46552;DHT22;32278;51.810;4.712;2022-08-07T12:05:10;24.70;1.00
46552;DHT22;32278;51.810;4.712;2022-08-07T12:07:44;24.70;1.00
46552;DHT22;32278;51.810;4.712;2022-08-07T12:10:51;25.00;1.00
46552;DHT22;32278;51.810;4.712;2022-08-07T12:13:32;24.60;1.00
46552;DHT22;32278;51.810;4.712;2022-08-07T12:16:08;23.80;1.00
46552;DHT22;32278;51.810;4.712;2022-08-07T12:18:43;24.20;1.00
46552;DHT22;32278;51.810;4.712;2022-08-07T12:21:43;25.00;1.00
46552;DHT22;32278;51.810;4.712;2022-08-07T12:24:37;24.90;1.00
46552;DHT22;32278;51.810;4.712;2022-08-07T12:27:11;25.00;1.00
46552;DHT22;32278;51.810;4.712;2022-08-07T12:29:48;25.20;1.00
46552;DHT22;32278;51.810;4.712;2022-08-07T12:35:03;24.00;1.00
46552;DHT22;32278;51.810;4.712;2022-08-07T12:37:32;24.80;1.00
46552;DHT22;32278;51.810;4.712;2022-08-07T12:39:58;25.60;1.00
46552;DHT22;32278;51.810;4.712;2022-08-07T12:42:27;25.60;1.00
46552;DHT22;32278;51.810;4.712;2022-08-07T12:45:02;25.40;1.00
46552;DHT22;32278;51.810;4.712;2022-08-07T12:47:54;25.80;1.00
46552;DHT22;32278;51.810;4.712;2022-08-07T12:50:28;24.90;1.00
46552;DHT22;32278;51.810;4.712;2022-08-07T12:58:55;24.70;1.00
46552;DHT22;32278;51.810;4.712;2022-08-07T13:07:21;24.00;1.00
46552;DHT22;32278;51.810;4.712;2022-08-07T13:15:44;24.00;1.00
46552;DHT22;32278;51.810;4.712;2022-08-07T13:18:20;23.90;1.00
46552;DHT22;32278;51.810;4.712;2022-08-07T13:21:16;24.30;1.00
46552;DHT22;32278;51.810;4.712;2022-08-07T13:24:14;24.30;1.00
46552;DHT22;32278;51.810;4.712;2022-08-07T13:26:43;23.80;1.00
46552;DHT22;32278;51.810;4.712;2022-08-07T13:29:22;24.00;1.00
46552;DHT22;32278;51.810;4.712;2022-08-07T13:31:56;24.10;1.00
46552;DHT22;32278;51.810;4.712;2022-08-07T13:34:42;24.10;1.00
46552;DHT22;32278;51.810;4.712;2022-08-07T13:40:25;23.80;1.00
46552;DHT22;32278;51.810;4.712;2022-08-07T13:42:55;23.70;10.50
46552;DHT22;32278;51.810;4.712;2022-08-07T13:45:24;23.80;1.00
46552;DHT22;32278;51.810;4.712;2022-08-07T13:47:52;24.10;1.00
46552;DHT22;32278;51.810;4.712;2022-08-07T13:50:23;24.00;1.00
46552;DHT22;32278;51.810;4.712;2022-08-07T13:52:50;23.30;17.30
46552;DHT22;32278;51.810;4.712;2022-08-07T13:55:19;23.10;36.90
46552;DHT22;32278;51.810;4.712;2022-08-07T13:57:51;23.40;43.80
46552;DHT22;32278;51.810;4.712;2022-08-07T14:00:17;23.40;45.90
46552;DHT22;32278;51.810;4.712;2022-08-07T14:02:46;23.60;34.50
46552;DHT22;32278;51.810;4.712;2022-08-07T14:05:13;23.30;31.30
46552;DHT22;32278;51.810;4.712;2022-08-07T14:07:45;23.30;31.60
46552;DHT22;32278;51.810;4.712;2022-08-07T14:10:12;23.20;34.00
46552;DHT22;32278;51.810;4.712;2022-08-07T14:12:51;23.50;32.40
46552;DHT22;32278;51.810;4.712;2022-08-07T14:15:30;23.40;34.00
46552;DHT22;32278;51.810;4.712;2022-08-07T14:18:01;23.60;33.90
46552;DHT22;32278;51.810;4.712;2022-08-07T14:20:29;23.40;21.10
46552;DHT22;32278;51.810;4.712;2022-08-07T14:23:19;23.10;23.30
46552;DHT22;32278;51.810;4.712;2022-08-07T14:25:46;23.20;32.90
46552;DHT22;32278;51.810;4.712;2022-08-07T14:28:14;23.30;28.60
46552;DHT22;32278;51.810;4.712;2022-08-07T14:30:46;23.10;24.60
46552;DHT22;32278;51.810;4.712;2022-08-07T14:33:15;22.90;36.30
46552;DHT22;32278;51.810;4.712;2022-08-07T14:35:41;22.70;43.60
46552;DHT22;32278;51.810;4.712;2022-08-07T14:38:08;23.00;39.20
46552;DHT22;32278;51.810;4.712;2022-08-07T14:40:35;23.10;35.70
46552;DHT22;32278;51.810;4.712;2022-08-07T14:43:05;23.20;34.80
46552;DHT22;32278;51.810;4.712;2022-08-07T14:45:51;22.80;34.50
46552;DHT22;32278;51.810;4.712;2022-08-07T14:48:20;22.90;48.20
46552;DHT22;32278;51.810;4.712;2022-08-07T14:50:50;22.70;47.00
46552;DHT22;32278;51.810;4.712;2022-08-07T14:53:18;22.60;46.90
46552;DHT22;32278;51.810;4.712;2022-08-07T14:55:44;22.40;45.20
46552;DHT22;32278;51.810;4.712;2022-08-07T14:58:12;22.50;49.80
46552;DHT22;32278;51.810;4.712;2022-08-07T15:00:42;22.50;64.00
46552;DHT22;32278;51.810;4.712;2022-08-07T15:03:09;22.80;63.50
46552;DHT22;32278;51.810;4.712;2022-08-07T15:05:37;22.50;68.70
46552;DHT22;32278;51.810;4.712;2022-08-07T15:08:05;22.30;74.60
46552;DHT22;32278;51.810;4.712;2022-08-07T15:10:34;22.30;79.10
46552;DHT22;32278;51.810;4.712;2022-08-07T15:13:04;22.40;76.50
46552;DHT22;32278;51.810;4.712;2022-08-07T15:15:39;22.40;77.20
46552;DHT22;32278;51.810;4.712;2022-08-07T15:18:11;22.10;76.80
46552;DHT22;32278;51.810;4.712;2022-08-07T15:20:38;22.00;80.90
46552;DHT22;32278;51.810;4.712;2022-08-07T15:23:10;21.90;84.80
46552;DHT22;32278;51.810;4.712;2022-08-07T15:25:38;21.80;86.20
46552;DHT22;32278;51.810;4.712;2022-08-07T15:28:07;21.90;85.40
46552;DHT22;32278;51.810;4.712;2022-08-07T15:30:34;22.20;83.90
46552;DHT22;32278;51.810;4.712;2022-08-07T15:33:02;22.00;80.80
46552;DHT22;32278;51.810;4.712;2022-08-07T15:35:30;22.00;81.30
46552;DHT22;32278;51.810;4.712;2022-08-07T15:37:59;22.30;79.00
46552;DHT22;32278;51.810;4.712;2022-08-07T15:40:30;22.20;72.50
46552;DHT22;32278;51.810;4.712;2022-08-07T15:45:42;21.80;70.80
46552;DHT22;32278;51.810;4.712;2022-08-07T15:48:25;21.80;70.00
46552;DHT22;32278;51.810;4.712;2022-08-07T15:50:55;22.00;68.20
46552;DHT22;32278;51.810;4.712;2022-08-07T15:53:37;22.00;61.10
46552;DHT22;32278;51.810;4.712;2022-08-07T15:56:06;21.60;65.10
46552;DHT22;32278;51.810;4.712;2022-08-07T16:01:26;21.60;65.40
46552;DHT22;32278;51.810;4.712;2022-08-07T16:03:55;21.60;58.50
46552;DHT22;32278;51.810;4.712;2022-08-07T16:06:34;21.60;67.00
46552;DHT22;32278;51.810;4.712;2022-08-07T16:09:35;21.80;68.30
46552;DHT22;32278;51.810;4.712;2022-08-07T16:12:32;21.80;61.10
46552;DHT22;32278;51.810;4.712;2022-08-07T16:15:30;21.80;61.70
46552;DHT22;32278;51.810;4.712;2022-08-07T16:32:07;21.80;66.40
46552;DHT22;32278;51.810;4.712;2022-08-07T16:34:48;22.00;63.90
46552;DHT22;32278;51.810;4.712;2022-08-07T16:37:46;21.70;56.80
46552;DHT22;32278;51.810;4.712;2022-08-07T16:52:02;21.60;74.90
46552;DHT22;32278;51.810;4.712;2022-08-07T16:57:35;21.70;83.10
46552;DHT22;32278;51.810;4.712;2022-08-07T17:02:48;21.50;84.10
46552;DHT22;32278;51.810;4.712;2022-08-07T17:07:55;21.30;91.50
46552;DHT22;32278;51.810;4.712;2022-08-07T17:21:25;21.00;94.00
46552;DHT22;32278;51.810;4.712;2022-08-07T17:24:02;21.00;93.50
46552;DHT22;32278;51.810;4.712;2022-08-07T17:27:03;21.20;93.00
46552;DHT22;32278;51.810;4.712;2022-08-07T17:30:02;20.90;94.20
46552;DHT22;32278;51.810;4.712;2022-08-07T17:32:58;20.90;94.90
46552;DHT22;32278;51.810;4.712;2022-08-07T17:41:01;20.90;98.00
46552;DHT22;32278;51.810;4.712;2022-08-07T17:43:33;20.80;99.10
46552;DHT22;32278;51.810;4.712;2022-08-07T17:46:20;20.70;99.90
46552;DHT22;32278;51.810;4.712;2022-08-07T17:51:30;20.60;99.90
46552;DHT22;32278;51.810;4.712;2022-08-07T17:54:20;20.50;99.90
46552;DHT22;32278;51.810;4.712;2022-08-07T17:57:01;20.40;99.90
46552;DHT22;32278;51.810;4.712;2022-08-07T17:59:38;20.30;99.90
46552;DHT22;32278;51.810;4.712;2022-08-07T18:02:10;20.50;99.90
46552;DHT22;32278;51.810;4.712;2022-08-07T18:05:01;20.60;99.90
46552;DHT22;32278;51.810;4.712;2022-08-07T18:07:35;20.50;99.90
46552;DHT22;32278;51.810;4.712;2022-08-07T18:10:21;20.50;99.90
46552;DHT22;32278;51.810;4.712;2022-08-07T18:13:02;20.50;99.90
46552;DHT22;32278;51.810;4.712;2022-08-07T18:15:46;20.30;99.90
46552;DHT22;32278;51.810;4.712;2022-08-07T18:18:15;20.40;99.90
46552;DHT22;32278;51.810;4.712;2022-08-07T18:21:04;20.40;99.90
46552;DHT22;32278;51.810;4.712;2022-08-07T18:23:47;20.50;99.90
46552;DHT22;32278;51.810;4.712;2022-08-07T18:26:26;20.30;99.90
46552;DHT22;32278;51.810;4.712;2022-08-07T18:31:51;20.00;99.90
46552;DHT22;32278;51.810;4.712;2022-08-07T18:34:46;20.10;99.90
46552;DHT22;32278;51.810;4.712;2022-08-07T18:37:28;20.00;99.90
46552;DHT22;32278;51.810;4.712;2022-08-07T18:40:21;19.90;99.90
46552;DHT22;32278;51.810;4.712;2022-08-07T18:45:21;19.90;99.90
46552;DHT22;32278;51.810;4.712;2022-08-07T18:48:08;19.80;99.90
46552;DHT22;32278;51.810;4.712;2022-08-07T18:53:45;19.80;99.90
46552;DHT22;32278;51.810;4.712;2022-08-07T18:56:24;19.70;99.90
46552;DHT22;32278;51.810;4.712;2022-08-07T18:59:17;19.60;99.90
46552;DHT22;32278;51.810;4.712;2022-08-07T19:04:47;19.50;99.90
46552;DHT22;32278;51.810;4.712;2022-08-07T19:10:56;19.40;99.90
46552;DHT22;32278;51.810;4.712;2022-08-07T19:13:34;19.30;99.90
46552;DHT22;32278;51.810;4.712;2022-08-07T19:16:07;19.30;99.90
46552;DHT22;32278;51.810;4.712;2022-08-07T19:18:48;19.20;99.90
46552;DHT22;32278;51.810;4.712;2022-08-07T19:21:33;19.30;99.90
46552;DHT22;32278;51.810;4.712;2022-08-07T19:24:08;19.20;99.90
46552;DHT22;32278;51.810;4.712;2022-08-07T19:26:40;19.30;99.90
46552;DHT22;32278;51.810;4.712;2022-08-07T19:29:07;19.20;99.90
46552;DHT22;32278;51.810;4.712;2022-08-07T19:31:36;19.10;99.90